Time;durP1;ratioP1;P1;durP2;ratioP2;P2;SDS_P1;SDS_P2;PMS_P1;PMS_P2;Temp;Humidity;BMP_temperature;BMP_pressure;BME280_temperature;BME280_humidity;BME280_pressure;Samples;Min_cycle;Max_cycle;Signal;HPM_P1;HPM_P2
2022/11/06 00:00:17;;;;;;;11.02;6.35;;;10.40;99.90;;;;;;4778598;29;20383;-81
2022/11/06 00:02:44;;;;;;;7.75;5.20;;;10.40;99.90;;;;;;4776144;29;20137;-82
2022/11/06 00:07:55;;;;;;;10.18;5.78;;;10.40;99.90;;;;;;4792097;29;20569;-82
2022/11/06 00:10:21;;;;;;;8.45;5.63;;;10.40;99.90;;;;;;4764840;29;20055;-82
2022/11/06 00:12:47;;;;;;;8.75;5.13;;;10.40;99.90;;;;;;4775967;29;20146;-82
2022/11/06 00:15:13;;;;;;;7.82;5.03;;;10.40;99.90;;;;;;4775906;29;20179;-80
2022/11/06 00:17:39;;;;;;;7.03;5.00;;;10.40;99.90;;;;;;4790799;29;20157;-82
2022/11/06 00:20:05;;;;;;;7.68;4.90;;;10.50;99.90;;;;;;4802824;29;20103;-82
2022/11/06 00:22:32;;;;;;;9.25;5.00;;;10.40;99.90;;;;;;4778585;29;20053;-82
2022/11/06 00:24:58;;;;;;;9.93;5.13;;;10.40;99.90;;;;;;4791389;29;20054;-82
2022/11/06 00:27:24;;;;;;;7.80;4.93;;;11.10;99.90;;;;;;4774970;29;20058;-82
2022/11/06 00:29:50;;;;;;;9.73;5.05;;;10.40;99.90;;;;;;4777643;29;20054;-81
2022/11/06 00:32:16;;;;;;;7.28;4.55;;;10.50;99.90;;;;;;4794666;29;20552;-82
2022/11/06 00:34:41;;;;;;;9.30;4.75;;;10.50;99.90;;;;;;4779179;29;20050;-81
2022/11/06 00:37:07;;;;;;;6.82;4.53;;;10.50;99.90;;;;;;4779749;29;20066;-82
2022/11/06 00:39:33;;;;;;;11.30;5.53;;;10.50;99.90;;;;;;4778998;29;20460;-81
2022/11/06 00:41:58;;;;;;;8.50;4.95;;;10.50;99.90;;;;;;4748745;29;20042;-82
2022/11/06 00:44:24;;;;;;;8.63;5.13;;;10.50;99.90;;;;;;4795139;29;20078;-82
2022/11/06 00:46:50;;;;;;;8.90;5.30;;;10.50;99.90;;;;;;4778161;29;20058;-81
2022/11/06 00:49:15;;;;;;;10.27;5.63;;;10.50;99.90;;;;;;4779518;29;20054;-80
2022/11/06 00:51:41;;;;;;;8.82;5.80;;;10.50;99.90;;;;;;4763354;29;20449;-80
2022/11/06 00:54:11;;;;;;;12.10;6.20;;;10.50;99.90;;;;;;4796924;29;20088;-80
2022/11/06 00:56:36;;;;;;;10.45;5.47;;;10.50;99.90;;;;;;4782634;29;20315;-80
2022/11/06 00:59:05;;;;;;;8.80;5.30;;;10.50;99.90;;;;;;4767422;29;20513;-80
2022/11/06 01:01:35;;;;;;;10.38;5.88;;;10.50;99.90;;;;;;4795430;29;20523;-80
2022/11/06 01:04:04;;;;;;;9.32;5.43;;;10.50;99.90;;;;;;4789961;29;20066;-80
2022/11/06 01:06:32;;;;;;;10.25;5.35;;;10.50;99.90;;;;;;4795137;29;20074;-80
2022/11/06 01:08:58;;;;;;;11.18;5.82;;;10.50;99.90;;;;;;5236547;24;20062;-83
2022/11/06 01:11:32;;;;;;;9.45;6.32;;;10.50;99.90;;;;;;4782951;29;20062;-84
2022/11/06 01:13:59;;;;;;;9.35;5.75;;;10.60;99.90;;;;;;4799662;29;20042;-84
2022/11/06 01:16:26;;;;;;;11.10;6.45;;;10.60;99.90;;;;;;4766206;29;20504;-84
2022/11/06 01:18:53;;;;;;;11.10;5.93;;;10.60;99.90;;;;;;4782568;29;20055;-84
2022/11/06 01:21:25;;;;;;;10.07;6.05;;;10.60;99.90;;;;;;4799239;29;20552;-84
2022/11/06 01:23:59;;;;;;;10.88;6.20;;;11.00;99.90;;;;;;4795209;29;20457;-84
2022/11/06 01:26:26;;;;;;;10.40;6.43;;;10.60;99.90;;;;;;4785403;29;20058;-83
2022/11/06 01:28:52;;;;;;;11.98;6.07;;;10.60;99.90;;;;;;4783303;29;20121;-83
2022/11/06 01:31:21;;;;;;;12.35;5.78;;;10.70;99.90;;;;;;4781436;29;20130;-84
2022/11/06 01:33:47;;;;;;;10.52;6.10;;;10.70;99.90;;;;;;4782927;29;20185;-84
2022/11/06 01:36:17;;;;;;;12.05;5.78;;;10.70;99.90;;;;;;4784501;29;20062;-84
2022/11/06 01:38:45;;;;;;;12.10;6.20;;;10.70;99.90;;;;;;4781378;29;20104;-84
2022/11/06 01:41:21;;;;;;;10.15;6.35;;;10.70;99.90;;;;;;4781798;29;20054;-83
2022/11/06 01:43:59;;;;;;;10.75;6.32;;;10.70;99.90;;;;;;4794598;29;20058;-83
2022/11/06 01:46:29;;;;;;;10.57;6.28;;;10.70;99.90;;;;;;4793493;29;20153;-82
2022/11/06 01:49:04;;;;;;;14.98;6.60;;;10.70;99.90;;;;;;4784700;29;20133;-84
2022/11/06 01:51:33;;;;;;;11.40;6.30;;;10.70;99.90;;;;;;4795624;29;20046;-83
2022/11/06 01:54:01;;;;;;;10.93;7.05;;;10.70;99.90;;;;;;4783614;29;20069;-83
2022/11/06 01:56:27;;;;;;;11.15;7.50;;;10.70;99.90;;;;;;4779603;29;20050;-83
2022/11/06 01:58:55;;;;;;;10.65;6.80;;;10.70;99.90;;;;;;4783581;29;20089;-82
2022/11/06 02:01:21;;;;;;;11.55;6.97;;;10.70;99.90;;;;;;4799252;29;20054;-83
2022/11/06 02:04:29;;;;;;;11.65;6.93;;;10.70;99.90;;;;;;4797363;29;20046;-83
2022/11/06 02:06:56;;;;;;;12.77;6.88;;;10.70;99.90;;;;;;4768551;29;20066;-83
2022/11/06 02:09:24;;;;;;;12.82;6.82;;;10.70;99.90;;;;;;4777515;29;20083;-82
2022/11/06 02:12:14;;;;;;;11.68;7.00;;;10.70;99.90;;;;;;4789371;29;20088;-83
2022/11/06 02:14:58;;;;;;;10.00;6.75;;;10.70;99.90;;;;;;4772969;29;20078;-83
2022/11/06 02:17:52;;;;;;;14.80;7.28;;;10.70;99.90;;;;;;4788502;29;20124;-83
2022/11/06 02:20:44;;;;;;;12.43;7.32;;;10.70;99.90;;;;;;4791478;29;20045;-83
2022/11/06 02:23:29;;;;;;;9.57;8.13;;;10.70;99.90;;;;;;4767735;29;20085;-83
2022/11/06 02:26:16;;;;;;;11.98;8.25;;;10.70;99.90;;;;;;4794354;29;20310;-84
2022/11/06 02:28:59;;;;;;;12.50;8.50;;;10.70;99.90;;;;;;4790358;29;20083;-84
2022/11/06 02:31:32;;;;;;;11.23;8.18;;;10.70;99.90;;;;;;4793973;29;20111;-82
2022/11/06 02:34:05;;;;;;;12.63;8.82;;;10.70;99.90;;;;;;4788841;29;20115;-85
2022/11/06 02:36:39;;;;;;;11.25;8.60;;;10.70;99.90;;;;;;4790874;29;20509;-84
2022/11/06 02:39:11;;;;;;;15.10;8.82;;;10.70;99.90;;;;;;4793827;29;20047;-83
2022/11/06 02:41:41;;;;;;;11.80;8.23;;;10.70;99.90;;;;;;4790146;29;20480;-83
2022/11/06 02:44:12;;;;;;;13.75;8.82;;;10.70;99.90;;;;;;4789660;29;20066;-83
2022/11/06 02:46:50;;;;;;;15.98;10.00;;;10.70;99.90;;;;;;4789401;29;20047;-84
2022/11/06 02:49:29;;;;;;;12.38;8.98;;;10.70;99.90;;;;;;4778413;29;20065;-85
2022/11/06 02:52:04;;;;;;;12.00;9.23;;;10.80;99.90;;;;;;4794658;29;20083;-84
2022/11/06 02:54:34;;;;;;;14.25;9.48;;;10.70;99.90;;;;;;4795166;29;20057;-83
2022/11/06 02:57:07;;;;;;;13.55;9.07;;;10.70;99.90;;;;;;4794736;29;20134;-84
2022/11/06 02:59:44;;;;;;;13.27;8.88;;;10.80;99.90;;;;;;4787193;29;20528;-83
2022/11/06 03:02:15;;;;;;;11.05;8.73;;;10.70;99.90;;;;;;4776490;29;20069;-83
2022/11/06 03:04:50;;;;;;;12.52;9.27;;;10.70;99.90;;;;;;4780449;29;20058;-82
2022/11/06 03:07:44;;;;;;;13.45;9.35;;;10.70;99.90;;;;;;4778101;29;20055;-82
2022/11/06 03:10:10;;;;;;;13.93;9.50;;;10.70;99.90;;;;;;4774810;29;20146;-82
2022/11/06 03:13:26;;;;;;;14.52;9.85;;;10.70;99.90;;;;;;4764471;29;20067;-83
2022/11/06 03:16:07;;;;;;;12.60;9.70;;;10.80;99.90;;;;;;4715392;30;20118;-84
2022/11/06 03:19:08;;;;;;;13.57;9.10;;;10.70;99.90;;;;;;4777900;29;20062;-83
2022/11/06 03:21:39;;;;;;;12.05;8.98;;;10.80;99.90;;;;;;4800759;29;20177;-84
2022/11/06 03:24:43;;;;;;;14.23;9.18;;;10.80;99.90;;;;;;4778898;29;20585;-83
2022/11/06 03:27:27;;;;;;;11.95;9.20;;;10.80;99.90;;;;;;4778611;29;20150;-84
2022/11/06 03:30:05;;;;;;;10.27;8.98;;;10.80;99.90;;;;;;4791592;29;20569;-84
2022/11/06 03:32:55;;;;;;;12.98;9.25;;;10.80;99.90;;;;;;4791499;29;20066;-83
2022/11/06 03:35:30;;;;;;;12.65;9.65;;;10.80;99.90;;;;;;4786954;29;20536;-83
2022/11/06 03:38:05;;;;;;;16.08;9.85;;;11.10;99.90;;;;;;4779075;29;20733;-83
2022/11/06 03:40:36;;;;;;;11.05;9.15;;;10.90;99.90;;;;;;4792766;29;20070;-82
2022/11/06 03:43:06;;;;;;;13.60;10.18;;;10.90;99.90;;;;;;4780086;29;20082;-83
2022/11/06 03:45:34;;;;;;;11.93;9.20;;;10.90;99.90;;;;;;4775660;29;20062;-83
2022/11/06 03:48:20;;;;;;;12.25;9.98;;;10.90;99.90;;;;;;4790567;29;20130;-83
2022/11/06 03:50:59;;;;;;;15.13;10.18;;;10.90;99.90;;;;;;4777510;29;20120;-84
2022/11/06 03:53:39;;;;;;;15.18;10.13;;;10.90;99.90;;;;;;4793131;29;20057;-83
2022/11/06 03:56:15;;;;;;;12.48;9.75;;;10.90;99.90;;;;;;4787920;29;20063;-84
2022/11/06 03:58:45;;;;;;;12.65;9.25;;;10.90;99.90;;;;;;4791383;29;20054;-83
2022/11/06 04:01:13;;;;;;;12.48;8.68;;;10.90;99.90;;;;;;4789405;29;20051;-83
2022/11/06 04:04:15;;;;;;;16.05;10.65;;;10.90;99.90;;;;;;4793264;29;20062;-84
2022/11/06 04:06:54;;;;;;;11.60;9.00;;;10.90;99.90;;;;;;4773894;29;20063;-85
2022/11/06 04:14:58;;;;;;;14.60;10.90;;;11.00;99.90;;;;;;4803965;29;20416;-83
2022/11/06 04:17:27;;;;;;;13.30;11.18;;;11.00;99.90;;;;;;4773248;29;20597;-84
2022/11/06 04:19:57;;;;;;;15.48;11.70;;;11.00;99.90;;;;;;4776568;29;20115;-84
2022/11/06 04:22:44;;;;;;;15.85;11.23;;;11.00;99.90;;;;;;4787183;29;20118;-84
2022/11/06 04:29:01;;;;;;;13.82;10.52;;;11.00;99.90;;;;;;4805461;29;20064;-84
2022/11/06 04:31:34;;;;;;;15.35;10.57;;;10.90;99.90;;;;;;4775623;29;20043;-84
2022/11/06 04:34:12;;;;;;;12.00;10.13;;;10.90;99.90;;;;;;4781357;29;20576;-84
2022/11/06 04:36:50;;;;;;;13.73;10.98;;;11.00;99.90;;;;;;4780611;29;20055;-85
2022/11/06 04:39:32;;;;;;;16.75;10.95;;;11.00;99.90;;;;;;4792670;29;20050;-84
2022/11/06 04:42:25;;;;;;;13.68;10.90;;;11.00;99.90;;;;;;4792375;29;20051;-83
2022/11/06 04:44:59;;;;;;;12.90;10.25;;;11.00;99.90;;;;;;4776692;29;20047;-83
2022/11/06 04:47:26;;;;;;;14.30;10.40;;;11.00;99.90;;;;;;4792312;29;20087;-84
2022/11/06 04:49:55;;;;;;;12.70;10.35;;;10.90;99.90;;;;;;4780485;29;20051;-84
2022/11/06 04:52:26;;;;;;;14.85;11.13;;;11.00;99.90;;;;;;4791390;29;20058;-84
2022/11/06 04:54:56;;;;;;;11.68;10.10;;;11.00;99.90;;;;;;4782236;29;20070;-84
2022/11/06 04:57:23;;;;;;;11.52;9.93;;;10.30;99.90;;;;;;4764270;29;20681;-84
2022/11/06 04:59:49;;;;;;;14.18;10.00;;;10.90;99.90;;;;;;4794790;29;20053;-83
2022/11/06 05:02:15;;;;;;;13.77;10.10;;;11.00;99.90;;;;;;4790132;29;20063;-84
2022/11/06 05:04:40;;;;;;;11.60;9.50;;;11.00;99.90;;;;;;4782377;29;20138;-84
2022/11/06 05:07:06;;;;;;;14.68;9.63;;;11.00;99.90;;;;;;4790011;29;20051;-84
2022/11/06 05:09:32;;;;;;;10.77;9.50;;;11.00;99.90;;;;;;4778280;29;20070;-83
2022/11/06 05:11:57;;;;;;;10.55;8.98;;;11.00;99.90;;;;;;4763424;29;20054;-85
2022/11/06 05:14:23;;;;;;;12.65;8.43;;;11.00;99.90;;;;;;4751482;29;20063;-83
2022/11/06 05:16:49;;;;;;;11.73;8.75;;;10.80;99.90;;;;;;4778848;29;20047;-84
2022/11/06 05:19:15;;;;;;;12.32;9.43;;;11.00;99.90;;;;;;4789883;29;20142;-83
2022/11/06 05:24:25;;;;;;;10.73;8.32;;;11.00;99.90;;;;;;4804691;29;20090;-84
2022/11/06 05:26:50;;;;;;;12.43;8.88;;;10.90;99.90;;;;;;4773209;29;20126;-83
2022/11/06 05:29:16;;;;;;;9.70;7.82;;;10.90;99.90;;;;;;4779690;29;20105;-84
2022/11/06 05:31:42;;;;;;;11.25;8.40;;;10.90;99.90;;;;;;4782331;29;20469;-84
2022/11/06 05:34:08;;;;;;;9.10;7.30;;;10.90;99.90;;;;;;4781796;29;20059;-83
2022/11/06 05:36:33;;;;;;;10.07;7.70;;;10.90;99.90;;;;;;4780252;29;20051;-83
2022/11/06 05:38:59;;;;;;;8.50;7.60;;;10.90;99.90;;;;;;4780293;29;20055;-84
2022/11/06 05:41:25;;;;;;;9.05;7.60;;;10.90;99.90;;;;;;4789970;29;20058;-83
2022/11/06 05:43:50;;;;;;;9.00;7.20;;;10.90;99.90;;;;;;4792333;29;20055;-83
2022/11/06 05:46:16;;;;;;;8.60;7.32;;;10.90;99.90;;;;;;4765381;29;20054;-83
2022/11/06 05:48:42;;;;;;;8.82;7.30;;;10.90;99.90;;;;;;4790347;29;20043;-83
2022/11/06 05:51:08;;;;;;;8.73;7.28;;;10.90;99.90;;;;;;4806291;29;20063;-84
2022/11/06 05:53:35;;;;;;;8.68;7.68;;;10.90;99.90;;;;;;4778719;29;20061;-83
2022/11/06 05:56:01;;;;;;;9.45;7.97;;;10.80;99.90;;;;;;4790575;29;20506;-84
2022/11/06 05:58:27;;;;;;;10.30;7.78;;;11.40;99.90;;;;;;4789595;29;20057;-84
2022/11/06 06:00:54;;;;;;;8.82;7.25;;;10.80;99.90;;;;;;4777195;29;20066;-84
2022/11/06 06:03:26;;;;;;;7.72;6.50;;;10.80;99.90;;;;;;4762575;29;20059;-83
2022/11/06 06:05:52;;;;;;;9.68;7.10;;;10.80;99.90;;;;;;4793899;29;20536;-83
2022/11/06 06:08:18;;;;;;;7.90;6.72;;;10.80;99.90;;;;;;4788202;29;20128;-84
2022/11/06 06:10:45;;;;;;;8.65;6.22;;;10.80;99.90;;;;;;4780137;29;20139;-84
2022/11/06 06:13:11;;;;;;;7.68;5.82;;;10.80;99.90;;;;;;4781651;29;20695;-84
2022/11/06 06:15:38;;;;;;;6.90;6.20;;;10.80;99.90;;;;;;4793269;29;20055;-84
2022/11/06 06:18:04;;;;;;;7.22;6.45;;;10.80;99.90;;;;;;4762784;29;20058;-84
2022/11/06 06:20:30;;;;;;;8.48;6.20;;;10.80;99.90;;;;;;4778213;29;20119;-84
2022/11/06 06:22:57;;;;;;;7.55;6.63;;;10.70;99.90;;;;;;4789725;29;20063;-83
2022/11/06 06:25:23;;;;;;;8.38;7.32;;;10.80;99.90;;;;;;4777404;29;20047;-84
2022/11/06 06:27:50;;;;;;;8.60;7.40;;;10.70;99.90;;;;;;4780533;29;20551;-84
2022/11/06 06:30:16;;;;;;;11.10;8.57;;;10.70;99.90;;;;;;4789894;29;20067;-85
2022/11/06 06:32:42;;;;;;;10.48;9.38;;;10.70;99.90;;;;;;4777592;29;20077;-85
2022/11/06 06:35:08;;;;;;;12.10;9.77;;;10.70;99.90;;;;;;4785001;29;20047;-85
2022/11/06 06:37:34;;;;;;;12.50;10.63;;;10.70;99.90;;;;;;4778467;29;20047;-83
2022/11/06 06:40:02;;;;;;;13.65;11.13;;;10.70;99.90;;;;;;4786023;29;20115;-84
2022/11/06 06:42:28;;;;;;;15.85;11.55;;;10.70;99.90;;;;;;4764063;29;20584;-83
2022/11/06 06:44:54;;;;;;;15.18;11.43;;;10.30;99.90;;;;;;4793636;29;20573;-85
2022/11/06 06:47:23;;;;;;;12.20;10.82;;;10.70;99.90;;;;;;4776922;29;20053;-84
2022/11/06 06:49:54;;;;;;;12.30;9.95;;;10.70;99.90;;;;;;4795546;29;20169;-85
2022/11/06 06:52:20;;;;;;;10.93;9.27;;;10.70;99.90;;;;;;4777159;29;20055;-85
2022/11/06 06:54:48;;;;;;;11.63;9.43;;;10.70;99.90;;;;;;4780179;29;20657;-85
2022/11/06 06:57:14;;;;;;;11.88;9.63;;;10.60;99.90;;;;;;4780898;29;20062;-84
2022/11/06 06:59:43;;;;;;;12.55;9.77;;;10.80;99.90;;;;;;4788415;29;20043;-84
2022/11/06 07:02:12;;;;;;;12.45;9.88;;;10.70;99.90;;;;;;4791400;29;20062;-85
2022/11/06 07:04:38;;;;;;;11.50;10.30;;;10.60;99.90;;;;;;4795678;29;20343;-84
2022/11/06 07:07:06;;;;;;;15.23;9.85;;;10.50;99.90;;;;;;4794429;29;20063;-83
2022/11/06 07:09:32;;;;;;;16.25;10.90;;;10.60;99.90;;;;;;4761875;29;20069;-85
2022/11/06 07:12:01;;;;;;;14.60;9.30;;;10.60;99.90;;;;;;4790595;29;20063;-84
2022/11/06 07:14:26;;;;;;;14.93;9.85;;;10.60;99.90;;;;;;4777515;29;20061;-85
2022/11/06 07:16:52;;;;;;;12.32;10.07;;;10.60;99.90;;;;;;4763890;29;20063;-85
2022/11/06 07:19:18;;;;;;;14.00;9.77;;;10.60;99.90;;;;;;4777100;29;20115;-85
2022/11/06 07:21:44;;;;;;;13.35;9.27;;;10.70;99.90;;;;;;4779942;29;20493;-83
2022/11/06 07:24:20;;;;;;;;;;;;;;;;;;;;;
2022/11/06 07:26:55;;;;;;;12.20;9.73;;;10.20;99.90;;;;;;4792631;29;20055;-87
2022/11/06 07:29:23;;;;;;;12.65;10.75;;;10.60;99.90;;;;;;4777118;29;20115;-86
2022/11/06 07:31:49;;;;;;;15.30;10.15;;;10.70;99.90;;;;;;4780080;29;20047;-84
2022/11/06 07:34:15;;;;;;;14.25;10.55;;;10.70;99.90;;;;;;4791351;29;20070;-85
2022/11/06 07:36:43;;;;;;;12.52;9.30;;;9.70;99.90;;;;;;4790799;29;20070;-84
2022/11/06 07:39:12;;;;;;;12.55;9.40;;;10.60;99.90;;;;;;4788381;29;20055;-85
2022/11/06 07:41:48;;;;;;;14.45;9.07;;;10.60;99.90;;;;;;4783798;29;20047;-85
2022/11/06 07:44:26;;;;;;;13.68;9.40;;;10.60;99.90;;;;;;4778892;29;20062;-84
2022/11/06 07:46:52;;;;;;;15.20;8.35;;;10.60;99.90;;;;;;4777551;29;20137;-83
2022/11/06 07:49:18;;;;;;;13.85;8.25;;;10.60;99.90;;;;;;4757501;29;20061;-83
2022/11/06 07:51:44;;;;;;;14.35;8.30;;;10.60;99.90;;;;;;4782240;29;20521;-83
2022/11/06 07:54:10;;;;;;;12.98;8.30;;;10.60;99.90;;;;;;4785204;29;20115;-83
2022/11/06 07:56:37;;;;;;;9.98;7.97;;;10.60;99.90;;;;;;4786936;29;20061;-84
2022/11/06 07:59:03;;;;;;;12.45;7.85;;;10.60;99.90;;;;;;4799569;29;20055;-83
2022/11/06 08:01:29;;;;;;;9.43;7.25;;;10.60;99.90;;;;;;4779520;29;20155;-83
2022/11/06 08:03:58;;;;;;;11.57;7.75;;;10.60;99.90;;;;;;4780647;29;20059;-83
2022/11/06 08:06:24;;;;;;;14.02;7.55;;;10.60;99.90;;;;;;4805415;29;20059;-85
2022/11/06 08:08:50;;;;;;;10.32;6.97;;;10.70;99.90;;;;;;4778470;29;20549;-85
2022/11/06 08:11:15;;;;;;;9.45;6.70;;;10.70;99.90;;;;;;4793450;29;20062;-85
2022/11/06 08:13:47;;;;;;;11.10;6.65;;;10.60;99.90;;;;;;4762639;29;20516;-84
2022/11/06 08:16:14;;;;;;;8.68;6.07;;;10.60;99.90;;;;;;4798079;29;20066;-82
2022/11/06 08:18:49;;;;;;;12.57;6.47;;;10.60;99.90;;;;;;4792528;29;20058;-84
2022/11/06 08:21:14;;;;;;;11.00;7.10;;;10.60;99.90;;;;;;4782816;29;20043;-83
2022/11/06 08:23:40;;;;;;;11.50;5.75;;;10.60;99.90;;;;;;4781880;29;20066;-83
2022/11/06 08:26:06;;;;;;;11.35;5.95;;;10.60;99.90;;;;;;4790222;29;20051;-83
2022/11/06 08:28:35;;;;;;;9.80;5.55;;;10.60;99.90;;;;;;4777435;29;20051;-82
2022/11/06 08:31:07;;;;;;;9.43;5.95;;;10.60;99.90;;;;;;4773413;29;20421;-83
2022/11/06 08:33:35;;;;;;;12.32;5.43;;;10.30;99.90;;;;;;4778987;29;20565;-83
2022/11/06 08:36:07;;;;;;;8.60;5.10;;;10.50;99.90;;;;;;4788163;29;20055;-82
2022/11/06 08:38:36;;;;;;;11.43;6.20;;;10.60;99.90;;;;;;4778098;29;20055;-83
2022/11/06 08:41:13;;;;;;;10.95;5.65;;;10.20;99.90;;;;;;4777758;29;20135;-82
2022/11/06 08:43:39;;;;;;;7.43;5.90;;;10.50;99.90;;;;;;4773941;29;20062;-84
2022/11/06 08:46:06;;;;;;;13.07;5.65;;;10.60;99.90;;;;;;4760744;29;20051;-83
2022/11/06 08:48:32;;;;;;;10.45;5.78;;;10.50;99.90;;;;;;4776334;29;20055;-84
2022/11/06 08:50:58;;;;;;;12.68;5.82;;;10.50;99.90;;;;;;4787805;29;20058;-83
2022/11/06 08:53:24;;;;;;;9.10;5.78;;;10.60;99.90;;;;;;4788568;29;20084;-84
2022/11/06 08:55:50;;;;;;;10.35;5.50;;;10.60;99.90;;;;;;4775250;29;20442;-83
2022/11/06 08:58:16;;;;;;;8.90;5.25;;;10.50;99.90;;;;;;4777929;29;20051;-83
2022/11/06 09:00:42;;;;;;;9.20;5.00;;;10.50;99.90;;;;;;4759801;29;20180;-83
2022/11/06 09:03:14;;;;;;;9.10;4.97;;;10.60;99.90;;;;;;4800864;29;20055;-83
2022/11/06 09:05:43;;;;;;;8.68;4.82;;;10.50;99.90;;;;;;4777979;29;20510;-82
2022/11/06 09:08:09;;;;;;;9.32;5.00;;;10.20;99.90;;;;;;4775916;29;20203;-84
2022/11/06 09:10:40;;;;;;;8.35;5.00;;;10.50;99.90;;;;;;4786913;29;20071;-83
2022/11/06 09:13:06;;;;;;;9.93;5.75;;;10.50;99.90;;;;;;4776518;29;20055;-82
2022/11/06 09:15:33;;;;;;;10.00;5.60;;;10.50;99.90;;;;;;4785243;29;20090;-83
2022/11/06 09:18:09;;;;;;;9.63;4.70;;;10.80;99.90;;;;;;4777136;29;20063;-84
2022/11/06 09:20:35;;;;;;;7.28;4.65;;;10.50;99.90;;;;;;4773106;29;20067;-84
2022/11/06 09:23:04;;;;;;;8.55;4.82;;;10.40;99.90;;;;;;4776907;29;20126;-84
2022/11/06 09:25:33;;;;;;;10.57;5.25;;;10.50;99.90;;;;;;4776638;29;20562;-84
2022/11/06 09:28:00;;;;;;;7.20;4.85;;;10.50;99.90;;;;;;4788285;29;20089;-84
2022/11/06 09:30:30;;;;;;;10.13;4.82;;;10.50;99.90;;;;;;4791576;29;20109;-84
2022/11/06 09:32:59;;;;;;;7.75;4.82;;;10.50;99.90;;;;;;4792783;29;20512;-85
2022/11/06 09:35:29;;;;;;;9.85;4.72;;;10.50;99.90;;;;;;4779968;29;20068;-85
2022/11/06 09:38:04;;;;;;;9.35;4.85;;;10.50;99.90;;;;;;4796085;29;20073;-84
2022/11/06 09:40:34;;;;;;;8.63;4.95;;;10.40;99.90;;;;;;4777888;29;20051;-84
2022/11/06 09:43:28;;;;;;;9.02;4.68;;;10.60;99.90;;;;;;4786469;29;20051;-83
2022/11/06 09:45:56;;;;;;;6.50;3.90;;;10.60;99.90;;;;;;4790907;29;20066;-83
2022/11/06 09:48:40;;;;;;;8.50;4.18;;;10.50;99.90;;;;;;4771669;29;20108;-83
2022/11/06 09:51:46;;;;;;;4.97;3.75;;;10.50;99.90;;;;;;4784041;29;20438;-84
2022/11/06 09:54:18;;;;;;;7.97;4.13;;;10.50;99.90;;;;;;4756428;29;20087;-84
2022/11/06 09:56:46;;;;;;;7.88;4.40;;;10.50;99.90;;;;;;4783005;29;20063;-85
2022/11/06 09:59:16;;;;;;;10.98;4.63;;;10.50;99.90;;;;;;4797354;29;20046;-85
2022/11/06 10:01:47;;;;;;;6.50;4.20;;;10.50;99.90;;;;;;4771216;29;20082;-84
2022/11/06 10:04:34;;;;;;;7.90;4.38;;;10.50;99.90;;;;;;4788578;29;20051;-83
2022/11/06 10:07:00;;;;;;;7.28;4.65;;;10.50;99.90;;;;;;4801801;29;20055;-85
2022/11/06 10:09:26;;;;;;;9.25;3.95;;;10.50;99.90;;;;;;4793000;29;20051;-85
2022/11/06 10:12:26;;;;;;;7.72;3.60;;;10.50;99.90;;;;;;4773986;29;20579;-83
2022/11/06 10:15:16;;;;;;;5.28;3.65;;;10.60;99.90;;;;;;4788234;29;20059;-84
2022/11/06 10:17:52;;;;;;;7.10;3.90;;;10.60;99.90;;;;;;4790895;29;20099;-84
2022/11/06 10:20:19;;;;;;;;;;;10.60;99.90;;;;;;4778134;29;20055;-84
2022/11/06 10:23:02;;;;;;;7.82;3.72;;;10.50;99.90;;;;;;4774625;29;19940;-83
2022/11/06 10:25:52;;;;;;;7.55;3.22;;;10.50;99.90;;;;;;4779831;29;20082;-85
2022/11/06 10:28:41;;;;;;;6.57;3.13;;;10.60;99.90;;;;;;4782582;29;20051;-83
2022/11/06 10:31:26;;;;;;;7.38;3.45;;;9.90;99.90;;;;;;4785965;29;20132;-84
2022/11/06 10:34:02;;;;;;;8.45;3.72;;;10.60;99.90;;;;;;4771552;29;22039;-84
2022/11/06 10:36:35;;;;;;;6.00;3.47;;;10.60;99.90;;;;;;4784738;29;20101;-83
2022/11/06 10:39:04;;;;;;;8.23;4.05;;;10.50;99.90;;;;;;4769827;29;20059;-82
2022/11/06 10:41:37;;;;;;;6.32;3.55;;;10.60;99.90;;;;;;4787439;29;20056;-83
2022/11/06 10:44:26;;;;;;;5.68;3.55;;;9.90;99.90;;;;;;4789377;29;20581;-85
2022/11/06 10:47:03;;;;;;;8.52;3.83;;;10.70;99.90;;;;;;4781473;29;20051;-83
2022/11/06 10:49:35;;;;;;;6.20;3.60;;;10.70;99.90;;;;;;4773161;29;20055;-85
2022/11/06 10:52:17;;;;;;;6.97;4.13;;;11.30;99.90;;;;;;4772771;29;20147;-85
2022/11/06 10:55:13;;;;;;;8.85;4.50;;;11.90;99.90;;;;;;4768513;29;20057;-84
2022/11/06 10:58:22;;;;;;;9.30;4.20;;;10.00;99.90;;;;;;4768848;29;20493;-83
2022/11/06 11:00:54;;;;;;;8.55;4.25;;;10.80;99.90;;;;;;4766574;29;20502;-85
2022/11/06 11:03:30;;;;;;;11.43;4.75;;;10.70;99.90;;;;;;4773009;29;20560;-84
2022/11/06 11:05:56;;;;;;;5.55;3.92;;;10.80;99.90;;;;;;4771371;29;20054;-85
2022/11/06 11:08:45;;;;;;;9.68;3.95;;;10.80;99.90;;;;;;4783093;29;20057;-85
2022/11/06 11:11:21;;;;;;;7.07;3.83;;;10.90;99.90;;;;;;4772641;29;20104;-84
2022/11/06 11:13:50;;;;;;;7.00;3.70;;;10.90;99.90;;;;;;4782468;29;20074;-84
2022/11/06 11:16:27;;;;;;;8.88;4.47;;;10.90;99.90;;;;;;4782818;29;20059;-84
2022/11/06 11:18:53;;;;;;;7.25;3.88;;;11.00;99.90;;;;;;4778474;29;20063;-84
2022/11/06 11:21:18;;;;;;;6.15;3.38;;;11.10;99.90;;;;;;4784562;29;20047;-83
2022/11/06 11:24:06;;;;;;;10.25;4.05;;;11.20;99.90;;;;;;4784560;29;20055;-83
2022/11/06 11:26:42;;;;;;;10.55;4.50;;;11.30;99.90;;;;;;4785216;29;20226;-83
2022/11/06 11:29:20;;;;;;;6.25;3.90;;;10.50;99.90;;;;;;4781570;29;20053;-83
2022/11/06 11:31:50;;;;;;;7.78;4.18;;;11.40;99.90;;;;;;4774128;29;20801;-82
2022/11/06 11:34:21;;;;;;;7.50;3.53;;;11.40;99.90;;;;;;4792277;29;20046;-84
2022/11/06 11:36:56;;;;;;;8.10;4.10;;;11.40;99.90;;;;;;4791256;29;20055;-84
2022/11/06 11:39:30;;;;;;;5.40;3.72;;;11.40;99.90;;;;;;4775326;29;20058;-86
2022/11/06 11:42:21;;;;;;;6.32;4.03;;;11.50;99.90;;;;;;4775177;29;20406;-84
2022/11/06 11:45:08;;;;;;;12.75;4.00;;;11.50;99.90;;;;;;4794869;29;20055;-84
2022/11/06 11:47:35;;;;;;;7.75;3.63;;;11.50;99.90;;;;;;4790657;29;20105;-84
2022/11/06 11:50:29;;;;;;;8.52;3.40;;;12.00;99.90;;;;;;4779741;29;20443;-84
2022/11/06 11:53:17;;;;;;;7.72;3.20;;;11.60;99.90;;;;;;4793198;29;20051;-84
2022/11/06 11:55:48;;;;;;;6.95;3.22;;;11.70;99.90;;;;;;4794676;29;20133;-83
2022/11/06 11:58:26;;;;;;;6.95;2.80;;;11.60;99.90;;;;;;4790537;29;20046;-84
2022/11/06 12:00:58;;;;;;;6.65;3.00;;;11.90;99.90;;;;;;4795147;29;20162;-83
2022/11/06 12:03:32;;;;;;;7.00;2.80;;;11.70;99.90;;;;;;4781260;29;20549;-83
2022/11/06 12:06:25;;;;;;;7.57;2.55;;;11.70;99.90;;;;;;4783433;29;20073;-84
2022/11/06 12:08:54;;;;;;;5.25;2.28;;;11.70;99.90;;;;;;4787711;29;20536;-83
2022/11/06 12:11:27;;;;;;;11.05;2.63;;;11.70;99.90;;;;;;4768192;29;20059;-84
2022/11/06 12:14:20;;;;;;;7.38;2.67;;;11.80;99.90;;;;;;4782424;29;20418;-83
2022/11/06 12:16:53;;;;;;;6.68;3.10;;;11.70;99.90;;;;;;4786481;29;20215;-83
2022/11/06 12:19:22;;;;;;;6.25;2.90;;;11.80;99.90;;;;;;4804708;29;20054;-84
2022/11/06 12:22:00;;;;;;;6.43;2.40;;;11.80;99.90;;;;;;4796742;29;20054;-83
2022/11/06 12:25:04;;;;;;;5.97;2.70;;;11.70;99.90;;;;;;4783939;29;20066;-83
2022/11/06 12:27:41;;;;;;;7.40;2.70;;;11.80;99.90;;;;;;4784533;29;20065;-83
2022/11/06 12:30:14;;;;;;;7.82;2.22;;;11.70;99.90;;;;;;4794281;29;20111;-83
2022/11/06 12:32:55;;;;;;;6.10;2.30;;;11.70;99.90;;;;;;4792786;29;20265;-82
2022/11/06 12:35:25;;;;;;;8.05;2.67;;;10.70;99.90;;;;;;4800066;29;20149;-83
2022/11/06 12:37:55;;;;;;;8.32;2.50;;;11.60;99.90;;;;;;4797255;29;20058;-83
2022/11/06 12:40:29;;;;;;;7.63;2.35;;;11.50;99.90;;;;;;4780860;29;20805;-83
2022/11/06 12:43:36;;;;;;;5.60;2.35;;;11.50;99.90;;;;;;4800978;29;20125;-83
2022/11/06 12:46:37;;;;;;;4.97;2.35;;;11.50;99.90;;;;;;4809896;29;20065;-82
2022/11/06 12:49:15;;;;;;;7.47;2.42;;;11.50;99.90;;;;;;4792569;29;20046;-83
2022/11/06 12:52:07;;;;;;;6.70;2.38;;;11.40;99.90;;;;;;4797209;29;20054;-84
2022/11/06 12:55:00;;;;;;;5.00;2.08;;;11.40;99.90;;;;;;4807760;29;20057;-83
2022/11/06 12:57:37;;;;;;;6.50;2.40;;;11.40;99.90;;;;;;4780611;29;20050;-83
2022/11/06 13:00:21;;;;;;;3.60;1.98;;;11.30;99.90;;;;;;4780231;29;20287;-83
2022/11/06 13:03:11;;;;;;;4.22;2.38;;;11.30;99.90;;;;;;4798338;29;20401;-83
2022/11/06 13:06:02;;;;;;;6.45;2.25;;;11.30;99.90;;;;;;4782425;29;20417;-83
2022/11/06 13:08:55;;;;;;;4.95;2.28;;;11.30;99.90;;;;;;4790254;29;20073;-84
2022/11/06 13:11:42;;;;;;;6.10;2.42;;;11.30;99.90;;;;;;4790532;29;20062;-84
2022/11/06 13:14:25;;;;;;;5.18;1.98;;;11.20;99.90;;;;;;4790027;29;20097;-83
2022/11/06 13:17:10;;;;;;;4.70;2.30;;;11.20;99.90;;;;;;4779201;29;20132;-82
2022/11/06 13:19:59;;;;;;;6.03;2.60;;;11.20;99.90;;;;;;4792988;29;20050;-83
2022/11/06 13:22:43;;;;;;;5.32;2.00;;;11.20;99.90;;;;;;4779277;29;20127;-83
2022/11/06 13:25:19;;;;;;;6.95;2.30;;;11.10;99.90;;;;;;4800282;29;20092;-83
2022/11/06 13:27:59;;;;;;;6.28;2.05;;;11.10;99.90;;;;;;4784361;29;20065;-84